sensor_id;sensor_type;location;lat;lon;timestamp;P1;durP1;ratioP1;P2;durP2;ratioP2
7340;SDS011;6870;50.944;6.932;2024-01-06T00:00:07;9.60;;;8.90;;
7340;SDS011;6870;50.944;6.932;2024-01-06T00:02:36;10.30;;;9.27;;
7340;SDS011;6870;50.944;6.932;2024-01-06T00:05:04;10.97;;;9.87;;
7340;SDS011;6870;50.944;6.932;2024-01-06T00:07:33;10.53;;;9.53;;
7340;SDS011;6870;50.944;6.932;2024-01-06T00:10:01;10.63;;;9.63;;
7340;SDS011;6870;50.944;6.932;2024-01-06T00:12:30;10.07;;;9.17;;
7340;SDS011;6870;50.944;6.932;2024-01-06T00:14:59;10.30;;;9.20;;
7340;SDS011;6870;50.944;6.932;2024-01-06T00:17:27;9.37;;;7.90;;
7340;SDS011;6870;50.944;6.932;2024-01-06T00:19:55;8.70;;;8.00;;
7340;SDS011;6870;50.944;6.932;2024-01-06T00:22:24;10.23;;;9.03;;
7340;SDS011;6870;50.944;6.932;2024-01-06T00:24:52;8.97;;;8.27;;
7340;SDS011;6870;50.944;6.932;2024-01-06T00:27:20;9.60;;;8.60;;
7340;SDS011;6870;50.944;6.932;2024-01-06T00:29:48;10.27;;;9.37;;
7340;SDS011;6870;50.944;6.932;2024-01-06T00:32:17;8.77;;;7.97;;
7340;SDS011;6870;50.944;6.932;2024-01-06T00:34:45;8.47;;;7.67;;
7340;SDS011;6870;50.944;6.932;2024-01-06T00:37:14;10.43;;;8.73;;
7340;SDS011;6870;50.944;6.932;2024-01-06T00:39:42;8.03;;;7.33;;
7340;SDS011;6870;50.944;6.932;2024-01-06T00:42:10;8.20;;;7.50;;
7340;SDS011;6870;50.944;6.932;2024-01-06T00:44:38;9.10;;;8.20;;
7340;SDS011;6870;50.944;6.932;2024-01-06T00:47:06;8.30;;;7.37;;
7340;SDS011;6870;50.944;6.932;2024-01-06T00:49:36;7.90;;;7.20;;
7340;SDS011;6870;50.944;6.932;2024-01-06T00:52:04;8.57;;;7.80;;
7340;SDS011;6870;50.944;6.932;2024-01-06T00:54:33;7.70;;;7.10;;
7340;SDS011;6870;50.944;6.932;2024-01-06T00:57:01;6.60;;;6.00;;
7340;SDS011;6870;50.944;6.932;2024-01-06T00:59:29;7.40;;;6.70;;
7340;SDS011;6870;50.944;6.932;2024-01-06T01:01:57;7.63;;;6.83;;
7340;SDS011;6870;50.944;6.932;2024-01-06T01:04:25;8.17;;;7.30;;
7340;SDS011;6870;50.944;6.932;2024-01-06T01:06:54;7.67;;;6.97;;
7340;SDS011;6870;50.944;6.932;2024-01-06T01:09:22;8.30;;;7.50;;
7340;SDS011;6870;50.944;6.932;2024-01-06T01:11:50;7.50;;;6.90;;
7340;SDS011;6870;50.944;6.932;2024-01-06T01:14:18;7.40;;;6.70;;
7340;SDS011;6870;50.944;6.932;2024-01-06T01:16:46;6.10;;;5.60;;
7340;SDS011;6870;50.944;6.932;2024-01-06T01:19:15;6.87;;;6.20;;
7340;SDS011;6870;50.944;6.932;2024-01-06T01:21:43;7.23;;;6.60;;
7340;SDS011;6870;50.944;6.932;2024-01-06T01:24:12;6.37;;;5.77;;
7340;SDS011;6870;50.944;6.932;2024-01-06T01:26:40;6.20;;;5.70;;
7340;SDS011;6870;50.944;6.932;2024-01-06T01:29:08;7.07;;;6.37;;
7340;SDS011;6870;50.944;6.932;2024-01-06T01:31:36;6.37;;;5.80;;
7340;SDS011;6870;50.944;6.932;2024-01-06T01:34:05;6.93;;;6.40;;
7340;SDS011;6870;50.944;6.932;2024-01-06T01:36:33;6.97;;;6.47;;
7340;SDS011;6870;50.944;6.932;2024-01-06T01:39:01;6.43;;;5.87;;
7340;SDS011;6870;50.944;6.932;2024-01-06T01:41:30;5.77;;;5.37;;
7340;SDS011;6870;50.944;6.932;2024-01-06T01:43:58;5.97;;;5.50;;
7340;SDS011;6870;50.944;6.932;2024-01-06T01:46:27;6.50;;;5.90;;
7340;SDS011;6870;50.944;6.932;2024-01-06T01:48:58;6.63;;;6.03;;
7340;SDS011;6870;50.944;6.932;2024-01-06T01:51:28;6.00;;;5.50;;
7340;SDS011;6870;50.944;6.932;2024-01-06T01:54:01;6.47;;;5.87;;
7340;SDS011;6870;50.944;6.932;2024-01-06T01:56:31;5.43;;;5.03;;
7340;SDS011;6870;50.944;6.932;2024-01-06T01:59:00;6.53;;;5.93;;
7340;SDS011;6870;50.944;6.932;2024-01-06T02:01:32;5.70;;;4.90;;
7340;SDS011;6870;50.944;6.932;2024-01-06T02:04:01;7.43;;;6.20;;
7340;SDS011;6870;50.944;6.932;2024-01-06T02:06:29;6.00;;;5.50;;
7340;SDS011;6870;50.944;6.932;2024-01-06T02:08:57;5.60;;;5.10;;
7340;SDS011;6870;50.944;6.932;2024-01-06T02:11:25;5.53;;;5.13;;
7340;SDS011;6870;50.944;6.932;2024-01-06T02:13:55;6.10;;;5.60;;
7340;SDS011;6870;50.944;6.932;2024-01-06T02:16:23;5.77;;;5.37;;
7340;SDS011;6870;50.944;6.932;2024-01-06T02:18:51;5.53;;;5.10;;
7340;SDS011;6870;50.944;6.932;2024-01-06T02:21:19;5.13;;;4.73;;
7340;SDS011;6870;50.944;6.932;2024-01-06T02:23:50;6.17;;;5.67;;
7340;SDS011;6870;50.944;6.932;2024-01-06T02:26:18;6.20;;;5.60;;
7340;SDS011;6870;50.944;6.932;2024-01-06T02:28:46;5.63;;;5.13;;
7340;SDS011;6870;50.944;6.932;2024-01-06T02:31:15;6.27;;;5.77;;
7340;SDS011;6870;50.944;6.932;2024-01-06T02:33:43;5.70;;;5.30;;
7340;SDS011;6870;50.944;6.932;2024-01-06T02:36:12;5.30;;;4.90;;
7340;SDS011;6870;50.944;6.932;2024-01-06T02:38:39;5.20;;;4.53;;
7340;SDS011;6870;50.944;6.932;2024-01-06T02:41:08;6.00;;;5.50;;
7340;SDS011;6870;50.944;6.932;2024-01-06T02:43:36;6.60;;;6.00;;
7340;SDS011;6870;50.944;6.932;2024-01-06T02:46:04;5.47;;;4.97;;
7340;SDS011;6870;50.944;6.932;2024-01-06T02:48:34;5.00;;;4.60;;
7340;SDS011;6870;50.944;6.932;2024-01-06T02:51:02;5.37;;;4.97;;
7340;SDS011;6870;50.944;6.932;2024-01-06T02:53:30;4.67;;;4.27;;
7340;SDS011;6870;50.944;6.932;2024-01-06T02:55:58;4.87;;;4.47;;
7340;SDS011;6870;50.944;6.932;2024-01-06T02:58:28;5.40;;;4.90;;
7340;SDS011;6870;50.944;6.932;2024-01-06T03:00:56;5.23;;;4.80;;
7340;SDS011;6870;50.944;6.932;2024-01-06T03:03:25;4.77;;;4.37;;
7340;SDS011;6870;50.944;6.932;2024-01-06T03:05:53;5.13;;;4.53;;
7340;SDS011;6870;50.944;6.932;2024-01-06T03:08:22;5.40;;;4.90;;
7340;SDS011;6870;50.944;6.932;2024-01-06T03:10:50;5.50;;;5.10;;
7340;SDS011;6870;50.944;6.932;2024-01-06T03:13:18;3.93;;;3.57;;
7340;SDS011;6870;50.944;6.932;2024-01-06T03:15:47;3.97;;;3.67;;
7340;SDS011;6870;50.944;6.932;2024-01-06T03:18:15;6.50;;;4.90;;
7340;SDS011;6870;50.944;6.932;2024-01-06T03:20:44;14.83;;;4.50;;
7340;SDS011;6870;50.944;6.932;2024-01-06T03:23:12;4.47;;;4.07;;
7340;SDS011;6870;50.944;6.932;2024-01-06T03:25:40;4.50;;;3.37;;
7340;SDS011;6870;50.944;6.932;2024-01-06T03:28:08;3.20;;;2.90;;
7340;SDS011;6870;50.944;6.932;2024-01-06T03:30:36;5.03;;;3.10;;
7340;SDS011;6870;50.944;6.932;2024-01-06T03:33:05;6.23;;;2.83;;
7340;SDS011;6870;50.944;6.932;2024-01-06T03:35:34;3.10;;;2.80;;
7340;SDS011;6870;50.944;6.932;2024-01-06T03:38:02;3.50;;;2.77;;
7340;SDS011;6870;50.944;6.932;2024-01-06T03:40:30;3.50;;;2.37;;
7340;SDS011;6870;50.944;6.932;2024-01-06T03:42:58;2.93;;;2.40;;
7340;SDS011;6870;50.944;6.932;2024-01-06T03:45:26;7.70;;;2.30;;
7340;SDS011;6870;50.944;6.932;2024-01-06T03:47:54;2.67;;;2.03;;
7340;SDS011;6870;50.944;6.932;2024-01-06T03:50:24;4.23;;;2.10;;
7340;SDS011;6870;50.944;6.932;2024-01-06T03:52:52;3.60;;;2.23;;
7340;SDS011;6870;50.944;6.932;2024-01-06T03:55:20;2.50;;;1.93;;
7340;SDS011;6870;50.944;6.932;2024-01-06T03:57:48;3.60;;;2.10;;
7340;SDS011;6870;50.944;6.932;2024-01-06T04:00:16;6.00;;;2.40;;
7340;SDS011;6870;50.944;6.932;2024-01-06T04:02:45;2.30;;;2.03;;
7340;SDS011;6870;50.944;6.932;2024-01-06T04:05:13;2.23;;;1.77;;
7340;SDS011;6870;50.944;6.932;2024-01-06T04:07:42;2.33;;;2.10;;
7340;SDS011;6870;50.944;6.932;2024-01-06T04:10:10;3.40;;;2.13;;
7340;SDS011;6870;50.944;6.932;2024-01-06T04:12:39;3.53;;;1.80;;
7340;SDS011;6870;50.944;6.932;2024-01-06T04:15:07;5.20;;;1.60;;
7340;SDS011;6870;50.944;6.932;2024-01-06T04:17:36;2.60;;;1.90;;
7340;SDS011;6870;50.944;6.932;2024-01-06T04:20:04;4.00;;;1.57;;
7340;SDS011;6870;50.944;6.932;2024-01-06T04:22:34;2.70;;;1.70;;
7340;SDS011;6870;50.944;6.932;2024-01-06T04:25:03;2.63;;;1.73;;
7340;SDS011;6870;50.944;6.932;2024-01-06T04:27:32;3.67;;;2.23;;
7340;SDS011;6870;50.944;6.932;2024-01-06T04:30:01;2.13;;;1.67;;
7340;SDS011;6870;50.944;6.932;2024-01-06T04:32:30;3.70;;;2.10;;
7340;SDS011;6870;50.944;6.932;2024-01-06T04:34:58;2.67;;;1.57;;
7340;SDS011;6870;50.944;6.932;2024-01-06T04:37:26;2.80;;;1.60;;
7340;SDS011;6870;50.944;6.932;2024-01-06T04:39:55;2.80;;;1.50;;
7340;SDS011;6870;50.944;6.932;2024-01-06T04:42:24;2.93;;;1.80;;
7340;SDS011;6870;50.944;6.932;2024-01-06T04:44:53;3.20;;;2.10;;
7340;SDS011;6870;50.944;6.932;2024-01-06T04:47:21;12.73;;;2.13;;
7340;SDS011;6870;50.944;6.932;2024-01-06T04:49:49;7.60;;;1.87;;
7340;SDS011;6870;50.944;6.932;2024-01-06T04:52:17;2.53;;;2.00;;
7340;SDS011;6870;50.944;6.932;2024-01-06T04:54:45;1.97;;;1.50;;
7340;SDS011;6870;50.944;6.932;2024-01-06T04:57:13;3.63;;;2.77;;
7340;SDS011;6870;50.944;6.932;2024-01-06T04:59:43;2.90;;;2.13;;
7340;SDS011;6870;50.944;6.932;2024-01-06T05:02:11;1.40;;;1.20;;
7340;SDS011;6870;50.944;6.932;2024-01-06T05:04:41;6.57;;;2.10;;
7340;SDS011;6870;50.944;6.932;2024-01-06T05:07:09;4.50;;;2.00;;
7340;SDS011;6870;50.944;6.932;2024-01-06T05:09:37;2.17;;;1.60;;
7340;SDS011;6870;50.944;6.932;2024-01-06T05:12:05;3.90;;;1.60;;
7340;SDS011;6870;50.944;6.932;2024-01-06T05:14:33;2.87;;;1.90;;
7340;SDS011;6870;50.944;6.932;2024-01-06T05:17:03;3.07;;;2.07;;
7340;SDS011;6870;50.944;6.932;2024-01-06T05:19:31;3.33;;;1.53;;
7340;SDS011;6870;50.944;6.932;2024-01-06T05:22:00;2.00;;;1.50;;
7340;SDS011;6870;50.944;6.932;2024-01-06T05:24:29;4.23;;;2.03;;
7340;SDS011;6870;50.944;6.932;2024-01-06T05:26:57;1.63;;;1.50;;
7340;SDS011;6870;50.944;6.932;2024-01-06T05:29:25;1.77;;;1.37;;
7340;SDS011;6870;50.944;6.932;2024-01-06T05:31:53;1.70;;;1.40;;
7340;SDS011;6870;50.944;6.932;2024-01-06T05:34:22;2.07;;;1.23;;
7340;SDS011;6870;50.944;6.932;2024-01-06T05:36:50;3.40;;;1.97;;
7340;SDS011;6870;50.944;6.932;2024-01-06T05:39:19;6.40;;;1.40;;
7340;SDS011;6870;50.944;6.932;2024-01-06T05:41:47;2.50;;;1.60;;
7340;SDS011;6870;50.944;6.932;2024-01-06T05:44:15;2.63;;;1.60;;
7340;SDS011;6870;50.944;6.932;2024-01-06T05:46:43;2.10;;;1.43;;
7340;SDS011;6870;50.944;6.932;2024-01-06T05:49:11;1.63;;;1.53;;
7340;SDS011;6870;50.944;6.932;2024-01-06T05:51:44;3.47;;;1.60;;
7340;SDS011;6870;50.944;6.932;2024-01-06T05:54:13;1.60;;;1.40;;
7340;SDS011;6870;50.944;6.932;2024-01-06T05:56:41;6.17;;;1.50;;
7340;SDS011;6870;50.944;6.932;2024-01-06T05:59:09;2.00;;;1.60;;
7340;SDS011;6870;50.944;6.932;2024-01-06T06:01:37;1.77;;;1.37;;
7340;SDS011;6870;50.944;6.932;2024-01-06T06:04:05;1.53;;;1.13;;
7340;SDS011;6870;50.944;6.932;2024-01-06T06:06:34;2.97;;;1.67;;
7340;SDS011;6870;50.944;6.932;2024-01-06T06:09:03;1.90;;;1.17;;
7340;SDS011;6870;50.944;6.932;2024-01-06T06:11:33;2.63;;;1.73;;
7340;SDS011;6870;50.944;6.932;2024-01-06T06:14:01;1.70;;;1.20;;
7340;SDS011;6870;50.944;6.932;2024-01-06T06:16:29;2.70;;;1.40;;
7340;SDS011;6870;50.944;6.932;2024-01-06T06:18:57;2.03;;;1.27;;
7340;SDS011;6870;50.944;6.932;2024-01-06T06:21:25;1.63;;;1.20;;
7340;SDS011;6870;50.944;6.932;2024-01-06T06:23:53;1.57;;;1.10;;
7340;SDS011;6870;50.944;6.932;2024-01-06T06:26:23;2.03;;;1.37;;
7340;SDS011;6870;50.944;6.932;2024-01-06T06:28:51;1.47;;;1.03;;
7340;SDS011;6870;50.944;6.932;2024-01-06T06:31:19;2.43;;;1.63;;
7340;SDS011;6870;50.944;6.932;2024-01-06T06:33:47;2.10;;;1.37;;
7340;SDS011;6870;50.944;6.932;2024-01-06T06:36:15;1.90;;;1.50;;
7340;SDS011;6870;50.944;6.932;2024-01-06T06:38:43;1.40;;;1.30;;
7340;SDS011;6870;50.944;6.932;2024-01-06T06:41:11;1.90;;;1.40;;
7340;SDS011;6870;50.944;6.932;2024-01-06T06:43:41;1.40;;;1.10;;
7340;SDS011;6870;50.944;6.932;2024-01-06T06:46:09;1.93;;;1.20;;
7340;SDS011;6870;50.944;6.932;2024-01-06T06:48:37;3.90;;;1.33;;
7340;SDS011;6870;50.944;6.932;2024-01-06T06:51:06;2.00;;;1.40;;
7340;SDS011;6870;50.944;6.932;2024-01-06T06:53:34;2.03;;;1.40;;
7340;SDS011;6870;50.944;6.932;2024-01-06T06:56:02;1.83;;;1.37;;
7340;SDS011;6870;50.944;6.932;2024-01-06T06:58:31;1.83;;;1.63;;
7340;SDS011;6870;50.944;6.932;2024-01-06T07:01:00;1.67;;;1.20;;
7340;SDS011;6870;50.944;6.932;2024-01-06T07:03:29;2.10;;;1.30;;
7340;SDS011;6870;50.944;6.932;2024-01-06T07:05:57;2.17;;;1.63;;
7340;SDS011;6870;50.944;6.932;2024-01-06T07:08:25;2.60;;;1.47;;
7340;SDS011;6870;50.944;6.932;2024-01-06T07:10:53;2.93;;;1.67;;
7340;SDS011;6870;50.944;6.932;2024-01-06T07:13:21;1.43;;;1.13;;
7340;SDS011;6870;50.944;6.932;2024-01-06T07:15:49;2.00;;;1.30;;
7340;SDS011;6870;50.944;6.932;2024-01-06T07:18:24;1.90;;;1.00;;
7340;SDS011;6870;50.944;6.932;2024-01-06T07:20:53;1.30;;;1.10;;
7340;SDS011;6870;50.944;6.932;2024-01-06T07:23:21;1.93;;;1.13;;
7340;SDS011;6870;50.944;6.932;2024-01-06T07:25:49;3.40;;;1.30;;
7340;SDS011;6870;50.944;6.932;2024-01-06T07:28:17;1.60;;;1.00;;
7340;SDS011;6870;50.944;6.932;2024-01-06T07:30:45;1.57;;;1.13;;
7340;SDS011;6870;50.944;6.932;2024-01-06T07:33:13;1.47;;;1.13;;
7340;SDS011;6870;50.944;6.932;2024-01-06T07:35:42;3.33;;;1.37;;
7340;SDS011;6870;50.944;6.932;2024-01-06T07:38:11;2.27;;;0.93;;
7340;SDS011;6870;50.944;6.932;2024-01-06T07:40:39;1.40;;;0.93;;
7340;SDS011;6870;50.944;6.932;2024-01-06T07:43:08;2.63;;;1.20;;
7340;SDS011;6870;50.944;6.932;2024-01-06T07:45:36;2.60;;;1.50;;
7340;SDS011;6870;50.944;6.932;2024-01-06T07:48:05;2.63;;;1.10;;
7340;SDS011;6870;50.944;6.932;2024-01-06T07:50:34;2.00;;;1.20;;
7340;SDS011;6870;50.944;6.932;2024-01-06T07:53:03;1.63;;;1.10;;
7340;SDS011;6870;50.944;6.932;2024-01-06T07:55:31;1.40;;;1.00;;
7340;SDS011;6870;50.944;6.932;2024-01-06T07:57:59;1.23;;;0.97;;
7340;SDS011;6870;50.944;6.932;2024-01-06T08:00:27;1.47;;;1.10;;
7340;SDS011;6870;50.944;6.932;2024-01-06T08:02:55;2.87;;;1.23;;
7340;SDS011;6870;50.944;6.932;2024-01-06T08:05:23;3.00;;;1.57;;
7340;SDS011;6870;50.944;6.932;2024-01-06T08:07:52;1.90;;;1.10;;
7340;SDS011;6870;50.944;6.932;2024-01-06T08:10:21;1.43;;;0.90;;
7340;SDS011;6870;50.944;6.932;2024-01-06T08:12:49;4.07;;;1.80;;
7340;SDS011;6870;50.944;6.932;2024-01-06T08:15:17;2.20;;;1.50;;
7340;SDS011;6870;50.944;6.932;2024-01-06T08:17:45;1.87;;;1.30;;
7340;SDS011;6870;50.944;6.932;2024-01-06T08:20:13;2.07;;;1.10;;
7340;SDS011;6870;50.944;6.932;2024-01-06T08:22:41;3.73;;;1.47;;
7340;SDS011;6870;50.944;6.932;2024-01-06T08:25:10;2.00;;;1.30;;
7340;SDS011;6870;50.944;6.932;2024-01-06T08:27:41;2.57;;;1.10;;
7340;SDS011;6870;50.944;6.932;2024-01-06T08:30:09;2.40;;;1.13;;
7340;SDS011;6870;50.944;6.932;2024-01-06T08:32:38;2.50;;;1.13;;
7340;SDS011;6870;50.944;6.932;2024-01-06T08:35:07;2.70;;;1.03;;
7340;SDS011;6870;50.944;6.932;2024-01-06T08:37:36;1.67;;;1.07;;
7340;SDS011;6870;50.944;6.932;2024-01-06T08:40:05;5.73;;;1.10;;
7340;SDS011;6870;50.944;6.932;2024-01-06T08:42:35;3.60;;;1.20;;
7340;SDS011;6870;50.944;6.932;2024-01-06T08:45:04;1.47;;;1.30;;
7340;SDS011;6870;50.944;6.932;2024-01-06T08:47:33;1.00;;;0.80;;
7340;SDS011;6870;50.944;6.932;2024-01-06T08:50:01;4.50;;;1.10;;
7340;SDS011;6870;50.944;6.932;2024-01-06T08:52:30;1.47;;;1.30;;
7340;SDS011;6870;50.944;6.932;2024-01-06T08:54:58;1.37;;;0.93;;
7340;SDS011;6870;50.944;6.932;2024-01-06T08:57:26;3.23;;;0.93;;
7340;SDS011;6870;50.944;6.932;2024-01-06T08:59:54;1.50;;;1.20;;
7340;SDS011;6870;50.944;6.932;2024-01-06T09:02:24;1.87;;;0.90;;
7340;SDS011;6870;50.944;6.932;2024-01-06T09:04:52;2.07;;;1.20;;
7340;SDS011;6870;50.944;6.932;2024-01-06T09:07:21;2.70;;;1.10;;
7340;SDS011;6870;50.944;6.932;2024-01-06T09:09:49;1.90;;;1.10;;
7340;SDS011;6870;50.944;6.932;2024-01-06T09:12:17;2.30;;;1.37;;
7340;SDS011;6870;50.944;6.932;2024-01-06T09:14:47;1.47;;;1.10;;
7340;SDS011;6870;50.944;6.932;2024-01-06T09:17:15;1.53;;;1.00;;
7340;SDS011;6870;50.944;6.932;2024-01-06T09:19:44;2.00;;;0.90;;
7340;SDS011;6870;50.944;6.932;2024-01-06T09:22:14;1.30;;;1.00;;
7340;SDS011;6870;50.944;6.932;2024-01-06T09:24:42;1.30;;;1.10;;
7340;SDS011;6870;50.944;6.932;2024-01-06T09:27:10;1.47;;;1.00;;
7340;SDS011;6870;50.944;6.932;2024-01-06T09:29:39;2.20;;;1.50;;
7340;SDS011;6870;50.944;6.932;2024-01-06T09:32:07;1.40;;;0.80;;
7340;SDS011;6870;50.944;6.932;2024-01-06T09:34:35;1.57;;;0.97;;
7340;SDS011;6870;50.944;6.932;2024-01-06T09:37:07;6.50;;;0.90;;
7340;SDS011;6870;50.944;6.932;2024-01-06T09:39:35;2.90;;;1.33;;
7340;SDS011;6870;50.944;6.932;2024-01-06T09:42:03;1.10;;;0.90;;
7340;SDS011;6870;50.944;6.932;2024-01-06T09:44:32;1.07;;;0.83;;
7340;SDS011;6870;50.944;6.932;2024-01-06T09:47:00;1.60;;;0.80;;
7340;SDS011;6870;50.944;6.932;2024-01-06T09:49:31;1.77;;;0.90;;
7340;SDS011;6870;50.944;6.932;2024-01-06T09:52:03;1.67;;;1.07;;
7340;SDS011;6870;50.944;6.932;2024-01-06T09:54:39;1.50;;;1.17;;
7340;SDS011;6870;50.944;6.932;2024-01-06T09:57:16;2.00;;;1.03;;
7340;SDS011;6870;50.944;6.932;2024-01-06T09:59:45;1.77;;;1.10;;
7340;SDS011;6870;50.944;6.932;2024-01-06T10:02:14;1.83;;;1.10;;
7340;SDS011;6870;50.944;6.932;2024-01-06T10:04:43;1.87;;;1.10;;
7340;SDS011;6870;50.944;6.932;2024-01-06T10:07:13;3.27;;;1.10;;
7340;SDS011;6870;50.944;6.932;2024-01-06T10:09:41;3.40;;;1.40;;
7340;SDS011;6870;50.944;6.932;2024-01-06T10:12:09;1.90;;;1.50;;
7340;SDS011;6870;50.944;6.932;2024-01-06T10:14:38;1.90;;;1.23;;
7340;SDS011;6870;50.944;6.932;2024-01-06T10:17:06;2.20;;;1.10;;
7340;SDS011;6870;50.944;6.932;2024-01-06T10:19:34;1.47;;;0.90;;
7340;SDS011;6870;50.944;6.932;2024-01-06T10:22:04;3.53;;;1.20;;
7340;SDS011;6870;50.944;6.932;2024-01-06T10:24:35;2.30;;;1.43;;
7340;SDS011;6870;50.944;6.932;2024-01-06T10:27:04;2.03;;;1.20;;
7340;SDS011;6870;50.944;6.932;2024-01-06T10:29:35;1.80;;;0.80;;
7340;SDS011;6870;50.944;6.932;2024-01-06T10:32:03;1.30;;;1.00;;
7340;SDS011;6870;50.944;6.932;2024-01-06T10:34:33;3.40;;;1.07;;
7340;SDS011;6870;50.944;6.932;2024-01-06T10:37:03;5.60;;;1.17;;
7340;SDS011;6870;50.944;6.932;2024-01-06T10:39:32;3.30;;;1.10;;
7340;SDS011;6870;50.944;6.932;2024-01-06T10:42:04;2.80;;;1.00;;
7340;SDS011;6870;50.944;6.932;2024-01-06T10:44:34;5.50;;;1.00;;
7340;SDS011;6870;50.944;6.932;2024-01-06T10:47:03;3.00;;;1.13;;
7340;SDS011;6870;50.944;6.932;2024-01-06T10:49:31;2.43;;;1.00;;
7340;SDS011;6870;50.944;6.932;2024-01-06T10:52:01;2.50;;;1.67;;
7340;SDS011;6870;50.944;6.932;2024-01-06T10:54:32;1.70;;;1.20;;
7340;SDS011;6870;50.944;6.932;2024-01-06T10:57:03;5.90;;;1.17;;
7340;SDS011;6870;50.944;6.932;2024-01-06T10:59:33;4.20;;;1.33;;
7340;SDS011;6870;50.944;6.932;2024-01-06T11:02:02;2.57;;;1.20;;
7340;SDS011;6870;50.944;6.932;2024-01-06T11:04:32;1.50;;;1.00;;
7340;SDS011;6870;50.944;6.932;2024-01-06T11:07:00;6.90;;;5.30;;
7340;SDS011;6870;50.944;6.932;2024-01-06T11:09:29;8.07;;;6.80;;
7340;SDS011;6870;50.944;6.932;2024-01-06T11:12:03;8.83;;;7.67;;
7340;SDS011;6870;50.944;6.932;2024-01-06T11:14:36;7.60;;;6.57;;
7340;SDS011;6870;50.944;6.932;2024-01-06T11:17:05;12.40;;;8.63;;
7340;SDS011;6870;50.944;6.932;2024-01-06T11:19:42;9.00;;;7.53;;
7340;SDS011;6870;50.944;6.932;2024-01-06T11:22:17;9.87;;;8.37;;
7340;SDS011;6870;50.944;6.932;2024-01-06T11:24:56;8.67;;;7.63;;
7340;SDS011;6870;50.944;6.932;2024-01-06T11:27:32;9.97;;;7.50;;
7340;SDS011;6870;50.944;6.932;2024-01-06T11:30:02;9.07;;;7.23;;
7340;SDS011;6870;50.944;6.932;2024-01-06T11:32:34;9.13;;;8.03;;
7340;SDS011;6870;50.944;6.932;2024-01-06T11:35:06;9.90;;;7.40;;
7340;SDS011;6870;50.944;6.932;2024-01-06T11:37:36;9.83;;;8.27;;
7340;SDS011;6870;50.944;6.932;2024-01-06T11:40:31;10.37;;;7.70;;
7340;SDS011;6870;50.944;6.932;2024-01-06T11:43:01;8.10;;;5.13;;
7340;SDS011;6870;50.944;6.932;2024-01-06T11:45:33;4.50;;;3.60;;
7340;SDS011;6870;50.944;6.932;2024-01-06T11:48:02;5.97;;;3.03;;
7340;SDS011;6870;50.944;6.932;2024-01-06T11:50:35;5.50;;;3.33;;
7340;SDS011;6870;50.944;6.932;2024-01-06T11:53:04;4.17;;;2.20;;
7340;SDS011;6870;50.944;6.932;2024-01-06T11:55:35;4.80;;;2.50;;
7340;SDS011;6870;50.944;6.932;2024-01-06T11:58:05;4.50;;;1.90;;
7340;SDS011;6870;50.944;6.932;2024-01-06T12:00:36;4.73;;;2.67;;
7340;SDS011;6870;50.944;6.932;2024-01-06T12:03:15;4.67;;;2.40;;
7340;SDS011;6870;50.944;6.932;2024-01-06T12:05:51;4.00;;;2.70;;
7340;SDS011;6870;50.944;6.932;2024-01-06T12:08:27;4.17;;;2.17;;
7340;SDS011;6870;50.944;6.932;2024-01-06T12:11:03;5.40;;;1.70;;
7340;SDS011;6870;50.944;6.932;2024-01-06T12:13:31;6.13;;;2.83;;
7340;SDS011;6870;50.944;6.932;2024-01-06T12:15:59;9.80;;;2.90;;
7340;SDS011;6870;50.944;6.932;2024-01-06T12:18:28;3.77;;;2.00;;
7340;SDS011;6870;50.944;6.932;2024-01-06T12:20:56;3.93;;;2.33;;
7340;SDS011;6870;50.944;6.932;2024-01-06T12:23:24;3.40;;;2.53;;
7340;SDS011;6870;50.944;6.932;2024-01-06T12:25:53;2.20;;;1.80;;
7340;SDS011;6870;50.944;6.932;2024-01-06T12:28:23;12.10;;;2.80;;
7340;SDS011;6870;50.944;6.932;2024-01-06T12:30:51;6.17;;;2.70;;
7340;SDS011;6870;50.944;6.932;2024-01-06T12:33:21;3.40;;;1.93;;
7340;SDS011;6870;50.944;6.932;2024-01-06T12:35:49;2.77;;;1.83;;
7340;SDS011;6870;50.944;6.932;2024-01-06T12:38:19;5.33;;;2.47;;
7340;SDS011;6870;50.944;6.932;2024-01-06T12:40:47;4.90;;;2.40;;
7340;SDS011;6870;50.944;6.932;2024-01-06T12:43:16;4.67;;;2.13;;
7340;SDS011;6870;50.944;6.932;2024-01-06T12:45:46;7.30;;;2.47;;
7340;SDS011;6870;50.944;6.932;2024-01-06T12:48:14;7.63;;;2.37;;
7340;SDS011;6870;50.944;6.932;2024-01-06T12:50:42;5.77;;;2.20;;
7340;SDS011;6870;50.944;6.932;2024-01-06T12:53:10;5.87;;;2.30;;
7340;SDS011;6870;50.944;6.932;2024-01-06T12:56:00;2.03;;;1.33;;
7340;SDS011;6870;50.944;6.932;2024-01-06T12:58:28;5.30;;;1.83;;
7340;SDS011;6870;50.944;6.932;2024-01-06T13:00:58;4.23;;;2.03;;
7340;SDS011;6870;50.944;6.932;2024-01-06T13:03:26;4.07;;;2.30;;
7340;SDS011;6870;50.944;6.932;2024-01-06T13:05:54;5.43;;;1.80;;
7340;SDS011;6870;50.944;6.932;2024-01-06T13:08:22;5.10;;;2.27;;
7340;SDS011;6870;50.944;6.932;2024-01-06T13:10:51;7.13;;;2.43;;
7340;SDS011;6870;50.944;6.932;2024-01-06T13:13:19;2.87;;;1.63;;
7340;SDS011;6870;50.944;6.932;2024-01-06T13:15:47;5.97;;;3.30;;
7340;SDS011;6870;50.944;6.932;2024-01-06T13:18:17;8.10;;;4.70;;
7340;SDS011;6870;50.944;6.932;2024-01-06T13:20:45;14.00;;;7.80;;
7340;SDS011;6870;50.944;6.932;2024-01-06T13:23:13;13.37;;;9.10;;
7340;SDS011;6870;50.944;6.932;2024-01-06T13:25:41;16.30;;;10.13;;
7340;SDS011;6870;50.944;6.932;2024-01-06T13:28:09;17.27;;;13.10;;
7340;SDS011;6870;50.944;6.932;2024-01-06T13:30:38;18.97;;;14.47;;
7340;SDS011;6870;50.944;6.932;2024-01-06T13:33:07;20.00;;;15.43;;
7340;SDS011;6870;50.944;6.932;2024-01-06T13:35:38;27.40;;;17.87;;
7340;SDS011;6870;50.944;6.932;2024-01-06T13:38:06;22.10;;;18.87;;
7340;SDS011;6870;50.944;6.932;2024-01-06T13:40:35;22.83;;;18.60;;
7340;SDS011;6870;50.944;6.932;2024-01-06T13:43:02;28.17;;;20.27;;
7340;SDS011;6870;50.944;6.932;2024-01-06T13:45:32;36.60;;;22.70;;
7340;SDS011;6870;50.944;6.932;2024-01-06T13:48:00;27.80;;;21.73;;
7340;SDS011;6870;50.944;6.932;2024-01-06T13:50:35;28.00;;;22.90;;
7340;SDS011;6870;50.944;6.932;2024-01-06T13:53:04;35.10;;;24.63;;
7340;SDS011;6870;50.944;6.932;2024-01-06T13:55:33;37.57;;;26.60;;
7340;SDS011;6870;50.944;6.932;2024-01-06T13:58:01;32.03;;;24.17;;
7340;SDS011;6870;50.944;6.932;2024-01-06T14:00:30;32.57;;;23.70;;
7340;SDS011;6870;50.944;6.932;2024-01-06T14:02:58;33.43;;;24.50;;
7340;SDS011;6870;50.944;6.932;2024-01-06T14:05:27;29.10;;;23.30;;
7340;SDS011;6870;50.944;6.932;2024-01-06T14:07:55;34.83;;;24.70;;
7340;SDS011;6870;50.944;6.932;2024-01-06T14:10:24;30.70;;;24.80;;
7340;SDS011;6870;50.944;6.932;2024-01-06T14:12:52;30.73;;;24.23;;
7340;SDS011;6870;50.944;6.932;2024-01-06T14:15:21;38.80;;;23.87;;
7340;SDS011;6870;50.944;6.932;2024-01-06T14:17:49;30.90;;;24.13;;
7340;SDS011;6870;50.944;6.932;2024-01-06T14:20:18;36.23;;;25.93;;
7340;SDS011;6870;50.944;6.932;2024-01-06T14:22:46;30.67;;;24.77;;
7340;SDS011;6870;50.944;6.932;2024-01-06T14:25:15;33.17;;;25.70;;
7340;SDS011;6870;50.944;6.932;2024-01-06T14:27:46;33.47;;;22.50;;
7340;SDS011;6870;50.944;6.932;2024-01-06T14:30:14;32.57;;;22.80;;
7340;SDS011;6870;50.944;6.932;2024-01-06T14:32:43;33.27;;;23.17;;
7340;SDS011;6870;50.944;6.932;2024-01-06T14:35:11;31.10;;;23.60;;
7340;SDS011;6870;50.944;6.932;2024-01-06T14:37:40;30.50;;;20.63;;
7340;SDS011;6870;50.944;6.932;2024-01-06T14:40:11;29.70;;;22.40;;
7340;SDS011;6870;50.944;6.932;2024-01-06T14:42:39;27.77;;;21.37;;
7340;SDS011;6870;50.944;6.932;2024-01-06T14:45:09;29.30;;;22.73;;
7340;SDS011;6870;50.944;6.932;2024-01-06T14:47:38;24.80;;;21.77;;
7340;SDS011;6870;50.944;6.932;2024-01-06T14:50:07;28.67;;;22.17;;
7340;SDS011;6870;50.944;6.932;2024-01-06T14:52:35;25.83;;;21.03;;
7340;SDS011;6870;50.944;6.932;2024-01-06T14:55:04;27.97;;;21.23;;
7340;SDS011;6870;50.944;6.932;2024-01-06T14:57:33;24.70;;;19.80;;
7340;SDS011;6870;50.944;6.932;2024-01-06T15:00:01;33.57;;;21.47;;
7340;SDS011;6870;50.944;6.932;2024-01-06T15:02:31;26.67;;;20.03;;
7340;SDS011;6870;50.944;6.932;2024-01-06T15:05:00;23.37;;;18.80;;
7340;SDS011;6870;50.944;6.932;2024-01-06T15:07:28;24.40;;;19.07;;
7340;SDS011;6870;50.944;6.932;2024-01-06T15:09:57;20.07;;;17.23;;
7340;SDS011;6870;50.944;6.932;2024-01-06T15:12:30;22.20;;;18.60;;
7340;SDS011;6870;50.944;6.932;2024-01-06T15:14:58;24.33;;;18.00;;
7340;SDS011;6870;50.944;6.932;2024-01-06T15:17:26;23.57;;;18.17;;
7340;SDS011;6870;50.944;6.932;2024-01-06T15:19:56;23.97;;;17.80;;